Time;durP1;ratioP1;P1;durP2;ratioP2;P2;SDS_P1;SDS_P2;PMS_P1;PMS_P2;Temp;Humidity;BMP_temperature;BMP_pressure;BME280_temperature;BME280_humidity;BME280_pressure;Samples;Min_cycle;Max_cycle;Signal;HPM_P1;HPM_P2
2021/10/15 00:00:39;;;;;;;13.82;12.57;;;;;;;9.44;65.84;101711.70;462815;113;930526;-78
2021/10/15 00:01:42;;;;;;;14.14;12.86;;;;;;;9.44;65.79;101716.30;461942;113;922928;-79
2021/10/15 00:02:46;;;;;;;14.79;13.59;;;;;;;9.44;65.79;101716.30;461257;113;922976;-78
2021/10/15 00:03:49;;;;;;;14.51;13.38;;;;;;;9.43;65.80;101715.45;451955;115;930391;-79
2021/10/15 00:04:52;;;;;;;14.59;13.43;;;;;;;9.43;65.78;101709.16;461171;114;930621;-79
2021/10/15 00:05:56;;;;;;;14.11;12.78;;;;;;;9.43;65.79;101718.17;462432;113;923161;-79
2021/10/15 00:07:00;;;;;;;15.20;13.67;;;;;;;9.43;65.84;101717.33;461489;113;931152;-80
2021/10/15 00:08:03;;;;;;;15.22;13.99;;;;;;;9.41;65.88;101706.64;461615;113;922954;-79
2021/10/15 00:09:07;;;;;;;15.27;13.86;;;;;;;9.42;65.88;101708.34;460983;113;922576;-79
2021/10/15 00:10:12;;;;;;;16.97;15.41;;;;;;;9.42;65.87;101711.06;462562;114;923215;-78
2021/10/15 00:11:15;;;;;;;15.74;14.41;;;;;;;9.42;65.97;101711.06;462070;113;922588;-79
2021/10/15 00:12:19;;;;;;;15.76;14.40;;;;;;;9.43;66.00;101707.28;461191;113;922560;-78
2021/10/15 00:13:22;;;;;;;15.76;14.47;;;;;;;9.42;66.06;101705.62;452751;115;922481;-79
2021/10/15 00:14:25;;;;;;;16.09;14.35;;;;;;;9.42;66.09;101715.66;448101;116;922767;-79
2021/10/15 00:15:29;;;;;;;15.83;14.54;;;;;;;9.43;66.08;101706.44;446670;114;922832;-79
2021/10/15 00:16:33;;;;;;;15.52;14.23;;;;;;;9.43;66.04;101712.73;453711;116;930400;-79
2021/10/15 00:17:36;;;;;;;15.36;14.11;;;;;;;9.42;66.03;101708.34;453616;115;922507;-77
2021/10/15 00:18:40;;;;;;;15.61;14.12;;;;;;;9.42;66.21;101711.06;462716;113;922583;-78
2021/10/15 00:19:43;;;;;;;14.58;13.40;;;;;;;9.45;66.28;101712.56;456202;114;922530;-81
2021/10/15 00:20:47;;;;;;;15.76;14.39;;;;;;;9.45;66.37;101705.24;458116;114;930479;-81
2021/10/15 00:21:51;;;;;;;15.31;13.99;;;;;;;9.48;66.31;101713.03;461584;114;922668;-77
2021/10/15 00:22:54;;;;;;;14.68;13.49;;;;;;;9.49;66.25;101709.29;461792;113;930897;-79
2021/10/15 00:23:58;;;;;;;14.10;12.83;;;;;;;9.52;66.25;101721.71;462958;114;923055;-79
2021/10/15 00:25:01;;;;;;;14.63;13.39;;;;;;;9.54;66.21;101719.63;462508;114;930278;-78
2021/10/15 00:26:05;;;;;;;15.42;13.91;;;;;;;9.56;66.12;101712.14;455557;115;930541;-81
2021/10/15 00:27:08;;;;;;;15.82;14.46;;;;;;;9.56;66.03;101715.72;451645;114;923163;-78
2021/10/15 00:28:13;;;;;;;14.95;13.22;;;;;;;9.56;65.93;101720.31;455179;115;922560;-77
2021/10/15 00:29:17;;;;;;;15.62;14.18;;;;;;;9.56;65.90;101723.03;456581;116;923125;-78
2021/10/15 00:30:22;;;;;;;14.83;13.46;;;;;;;9.56;65.87;101717.59;456969;114;923100;-79
2021/10/15 00:31:26;;;;;;;14.23;12.89;;;;;;;9.55;65.81;101714.02;457857;114;922879;-79
2021/10/15 00:32:29;;;;;;;15.95;14.64;;;;;;;9.56;65.80;101712.14;455257;114;930444;-78
2021/10/15 00:33:33;;;;;;;16.01;14.66;;;;;;;9.54;65.76;101706.88;456135;114;922943;-78
2021/10/15 00:34:38;;;;;;;17.57;16.01;;;;;;;9.55;65.70;101710.44;452450;115;927366;-79
2021/10/15 00:35:42;;;;;;;15.82;14.29;;;;;;;9.54;65.66;101706.88;456740;113;922522;-79
2021/10/15 00:36:46;;;;;;;17.35;15.53;;;;;;;9.53;65.66;101713.38;456024;115;923245;-80
2021/10/15 00:37:50;;;;;;;20.26;15.63;;;;;;;9.52;65.63;101703.50;453163;116;923682;-79
2021/10/15 00:38:54;;;;;;;16.61;15.12;;;;;;;9.52;65.66;101703.50;463853;113;922653;-78
2021/10/15 00:39:57;;;;;;;15.98;14.64;;;;;;;9.53;65.73;101707.92;458110;113;922519;-79
2021/10/15 00:41:01;;;;;;;15.72;14.43;;;;;;;9.54;65.86;101706.88;452604;115;930557;-79
2021/10/15 00:42:04;;;;;;;17.14;15.49;;;;;;;9.54;65.80;101701.42;456375;115;930852;-79
2021/10/15 00:43:08;;;;;;;16.64;15.17;;;;;;;9.55;65.71;101702.27;459852;112;922630;-79
2021/10/15 00:44:13;;;;;;;15.40;14.08;;;;;;;9.56;65.78;101706.70;454281;115;922570;-79
2021/10/15 00:45:17;;;;;;;14.79;13.50;;;;;;;9.56;65.77;101709.42;462389;114;923326;-81
2021/10/15 00:46:21;;;;;;;15.45;14.07;;;;;;;9.58;65.75;101710.10;463775;114;922839;-80
2021/10/15 00:47:24;;;;;;;14.97;13.60;;;;;;;9.58;65.62;101708.23;453827;115;923082;-80
2021/10/15 00:48:27;;;;;;;15.60;14.49;;;;;;;9.57;65.52;101706.53;459472;114;922955;-79
2021/10/15 00:49:31;;;;;;;15.19;13.87;;;;;;;9.57;65.37;101719.30;458381;114;923107;-79
2021/10/15 00:50:36;;;;;;;14.71;13.34;;;;;;;9.57;65.37;101719.30;451062;116;930754;-76
2021/10/15 00:51:42;;;;;;;15.14;14.04;;;;;;;9.57;65.53;101725.59;455979;114;922926;-80
2021/10/15 00:52:45;;;;;;;15.66;14.34;;;;;;;9.57;65.55;101720.14;456861;114;923197;-78
2021/10/15 00:53:49;;;;;;;15.08;13.86;;;;;;;9.57;65.49;101724.73;462397;114;922447;-80
2021/10/15 00:54:52;;;;;;;14.09;12.99;;;;;;;9.57;65.54;101717.42;462167;113;930401;-79
2021/10/15 00:55:57;;;;;;;14.49;13.45;;;;;;;9.56;65.50;101715.72;461874;113;930563;-80
2021/10/15 00:57:01;;;;;;;14.46;13.35;;;;;;;9.56;65.54;101718.44;454652;115;922422;-79
2021/10/15 00:58:04;;;;;;;14.15;13.09;;;;;;;9.56;65.58;101718.44;456396;115;930401;-79
2021/10/15 00:59:08;;;;;;;14.41;13.34;;;;;;;9.57;65.50;101711.97;463605;113;922617;-79
2021/10/15 01:00:13;;;;;;;14.58;13.45;;;;;;;9.57;65.53;101722.86;460011;113;922855;-78
2021/10/15 01:01:16;;;;;;;15.85;14.48;;;;;;;9.58;65.51;101721.84;453473;116;930344;-79
2021/10/15 01:02:20;;;;;;;14.94;13.88;;;;;;;9.58;65.53;101721.84;457932;115;922511;-78
2021/10/15 01:03:24;;;;;;;14.44;13.18;;;;;;;9.58;65.54;101724.56;456379;114;930379;-79
2021/10/15 01:04:27;;;;;;;15.04;13.84;;;;;;;9.60;65.49;101719.77;461964;113;922387;-80
2021/10/15 01:05:31;;;;;;;14.98;13.55;;;;;;;9.60;65.41;101727.94;450721;115;930442;-76
2021/10/15 01:06:35;;;;;;;14.95;13.66;;;;;;;9.59;65.34;101719.97;452785;116;922891;-79
2021/10/15 01:07:39;;;;;;;15.09;13.84;;;;;;;9.60;65.34;101721.64;443161;119;922711;-79
2021/10/15 01:08:47;;;;;;;16.05;14.67;;;;;;;9.58;65.27;101719.12;462133;111;922750;-79
2021/10/15 01:09:51;;;;;;;15.74;14.52;;;;;;;9.57;65.24;101722.02;470729;111;922943;-80
2021/10/15 01:10:55;;;;;;;15.88;14.68;;;;;;;9.55;65.25;101721.34;455354;114;922821;-78
2021/10/15 01:12:01;;;;;;;16.34;14.93;;;;;;;9.53;65.29;101718.81;456663;114;923136;-78
2021/10/15 01:13:12;;;;;;;16.00;14.78;;;;;;;9.64;65.38;101717.55;481126;108;933533;-78
2021/10/15 01:14:15;;;;;;;16.32;14.37;;;;;;;9.53;65.37;101716.09;469175;110;922560;-79
2021/10/15 01:15:19;;;;;;;16.72;15.06;;;;;;;9.52;65.39;101711.67;466982;111;930818;-79
2021/10/15 01:16:25;;;;;;;16.56;15.22;;;;;;;9.53;65.42;101720.69;467086;111;931081;-78
2021/10/15 01:17:30;;;;;;;16.48;15.08;;;;;;;9.53;65.38;101720.69;450054;115;922741;-80
2021/10/15 01:18:34;;;;;;;16.36;14.98;;;;;;;9.52;65.45;101718.98;466352;111;922899;-80
2021/10/15 01:19:37;;;;;;;16.32;14.96;;;;;;;9.51;65.44;101717.29;467623;111;930518;-79
2021/10/15 01:20:42;;;;;;;16.36;15.04;;;;;;;9.51;65.48;101725.45;468887;111;923407;-79
2021/10/15 01:21:45;;;;;;;17.41;15.95;;;;;;;9.51;65.57;101725.45;466225;111;923071;-79
2021/10/15 01:22:49;;;;;;;16.28;15.09;;;;;;;9.51;65.51;101726.30;466506;111;922512;-79
2021/10/15 01:23:54;;;;;;;17.28;15.79;;;;;;;9.52;65.54;101736.17;466201;111;922622;-80
2021/10/15 01:24:58;;;;;;;16.78;15.33;;;;;;;9.53;65.50;101737.02;468409;111;922375;-77
2021/10/15 01:26:02;;;;;;;18.28;16.61;;;;;;;9.54;65.50;101734.09;468780;111;922943;-79
2021/10/15 01:27:10;;;;;;;18.07;16.53;;;;;;;9.54;65.42;101735.97;468289;111;922661;-79
2021/10/15 01:28:13;;;;;;;18.17;16.47;;;;;;;9.53;65.46;101735.16;469634;111;922581;-78
2021/10/15 01:29:17;;;;;;;16.60;15.28;;;;;;;9.53;65.45;101737.88;457864;113;922659;-80
2021/10/15 01:30:21;;;;;;;17.48;16.05;;;;;;;9.54;65.46;101735.97;467469;111;922586;-78
2021/10/15 01:31:26;;;;;;;17.84;16.12;;;;;;;9.54;65.40;101733.25;465890;111;922894;-78
2021/10/15 01:32:29;;;;;;;16.94;15.49;;;;;;;9.54;65.38;101731.38;468707;111;930454;-79
2021/10/15 01:33:34;;;;;;;18.09;16.69;;;;;;;9.53;65.37;101735.16;467927;111;931015;-79
2021/10/15 01:34:38;;;;;;;17.67;16.11;;;;;;;9.53;65.31;101731.58;468710;111;922625;-80
2021/10/15 01:35:41;;;;;;;18.26;16.57;;;;;;;9.52;65.30;101733.45;467204;111;922585;-80
2021/10/15 01:36:45;;;;;;;18.30;16.63;;;;;;;9.52;65.33;101735.33;467229;111;923519;-79
2021/10/15 01:37:49;;;;;;;17.53;16.11;;;;;;;9.49;65.42;101731.07;466877;111;922913;-79
2021/10/15 01:38:53;;;;;;;17.29;15.89;;;;;;;9.50;65.40;101734.64;468599;111;922445;-80
2021/10/15 01:39:56;;;;;;;16.61;15.25;;;;;;;9.49;65.42;101724.77;453035;115;922617;-79
2021/10/15 01:41:00;;;;;;;18.46;17.06;;;;;;;9.48;65.41;101732.09;468907;111;922505;-80
2021/10/15 01:42:03;;;;;;;17.78;16.28;;;;;;;9.49;65.43;101738.39;468224;111;922483;-79
2021/10/15 01:43:07;;;;;;;17.62;16.07;;;;;;;9.47;65.55;101733.14;467044;111;922468;-78
2021/10/15 01:44:11;;;;;;;19.35;17.54;;;;;;;9.48;65.57;101736.72;465806;111;930736;-77
2021/10/15 01:45:14;;;;;;;18.62;17.06;;;;;;;9.48;65.57;101732.09;468149;111;922949;-81
2021/10/15 01:46:17;;;;;;;17.46;15.74;;;;;;;9.49;65.54;101728.34;466493;111;923094;-78
2021/10/15 01:47:21;;;;;;;17.68;16.28;;;;;;;9.50;65.51;101732.77;467613;111;923276;-79
2021/10/15 01:48:27;;;;;;;17.66;16.15;;;;;;;9.51;65.51;101736.34;469694;111;923046;-79
2021/10/15 01:49:30;;;;;;;17.18;15.77;;;;;;;9.51;65.54;101736.34;470456;111;922512;-80
2021/10/15 01:50:34;;;;;;;17.56;16.20;;;;;;;9.52;65.64;101738.05;467887;111;922970;-79
2021/10/15 01:51:38;;;;;;;16.46;15.03;;;;;;;9.52;65.62;101738.90;468319;111;922535;-79
2021/10/15 01:52:41;;;;;;;17.86;16.04;;;;;;;9.51;65.56;101748.09;450871;116;922841;-80
2021/10/15 01:53:45;;;;;;;17.90;16.46;;;;;;;9.52;65.52;101751.66;457927;113;922517;-79
2021/10/15 01:54:48;;;;;;;17.44;16.11;;;;;;;9.50;65.48;101740.09;468242;111;923160;-80
2021/10/15 01:55:52;;;;;;;17.56;16.18;;;;;;;9.50;65.53;101751.83;466937;111;922531;-79
2021/10/15 01:56:56;;;;;;;18.44;16.82;;;;;;;9.49;65.66;101747.41;468609;111;922496;-80
2021/10/15 01:58:00;;;;;;;18.69;17.15;;;;;;;9.49;65.66;101750.12;466848;111;922958;-79
2021/10/15 01:59:05;;;;;;;20.43;18.27;;;;;;;9.50;65.74;101751.83;464899;111;923574;-81
2021/10/15 02:00:11;;;;;;;18.29;16.79;;;;;;;9.50;65.75;101757.27;465983;111;922819;-80
2021/10/15 02:01:14;;;;;;;18.84;17.17;;;;;;;9.50;65.71;101749.11;448189;116;922543;-81
2021/10/15 02:02:18;;;;;;;20.04;18.19;;;;;;;9.49;65.71;101754.72;450201;116;923018;-81
2021/10/15 02:03:21;;;;;;;18.38;16.94;;;;;;;9.49;65.64;101760.17;467664;111;931244;-79
2021/10/15 02:04:25;;;;;;;19.64;18.11;;;;;;;9.49;65.62;101761.02;467461;111;922375;-79
2021/10/15 02:05:29;;;;;;;19.07;17.48;;;;;;;9.47;65.60;101752.20;468242;111;926619;-78
2021/10/15 02:06:33;;;;;;;18.62;17.12;;;;;;;9.46;65.58;101761.39;466161;111;922810;-79
2021/10/15 02:07:40;;;;;;;19.72;18.05;;;;;;;9.45;65.65;101758.84;465867;111;922667;-79
2021/10/15 02:08:43;;;;;;;19.76;18.10;;;;;;;9.43;65.68;101767.17;465646;111;922807;-79
2021/10/15 02:09:47;;;;;;;19.12;17.36;;;;;;;9.43;65.66;101769.89;466381;111;930584;-80
2021/10/15 02:10:52;;;;;;;18.86;17.21;;;;;;;9.42;65.70;101765.50;464639;111;922517;-78
2021/10/15 02:11:57;;;;;;;19.70;18.04;;;;;;;9.41;65.77;101765.67;466036;111;922563;-78
2021/10/15 02:13:00;;;;;;;19.60;18.04;;;;;;;9.40;65.82;101759.37;455500;113;930803;-79
2021/10/15 02:14:03;;;;;;;20.12;18.44;;;;;;;9.41;65.88;101760.23;458117;114;923150;-78
2021/10/15 02:15:10;;;;;;;20.65;18.86;;;;;;;9.41;65.86;101760.23;455171;114;930705;-79
2021/10/15 02:16:14;;;;;;;21.07;19.03;;;;;;;9.41;65.78;101761.08;447885;115;922818;-80
2021/10/15 02:17:18;;;;;;;18.96;17.35;;;;;;;9.41;65.75;101763.80;450464;115;922895;-79
2021/10/15 02:18:22;;;;;;;19.47;17.79;;;;;;;9.40;65.71;101762.10;451034;115;930804;-79
2021/10/15 02:19:26;;;;;;;20.11;18.16;;;;;;;9.40;65.81;101761.25;452155;114;923118;-79
2021/10/15 02:20:31;;;;;;;19.25;17.66;;;;;;;9.41;65.79;101763.80;452055;114;922678;-79
2021/10/15 02:21:35;;;;;;;18.97;17.31;;;;;;;9.41;65.80;101761.08;449524;115;923003;-79
2021/10/15 02:22:40;;;;;;;19.72;18.12;;;;;;;9.41;65.81;101766.52;454088;115;930563;-79
2021/10/15 02:23:45;;;;;;;20.27;18.67;;;;;;;9.43;65.85;101763.60;452513;115;923131;-79
2021/10/15 02:24:48;;;;;;;20.51;18.86;;;;;;;9.43;65.86;101769.05;452319;116;923095;-79
2021/10/15 02:25:52;;;;;;;19.93;17.99;;;;;;;9.43;65.86;101780.78;450049;115;930651;-78
2021/10/15 02:26:56;;;;;;;19.44;17.74;;;;;;;9.42;65.75;101773.67;458200;113;922758;-80
2021/10/15 02:28:00;;;;;;;19.59;17.94;;;;;;;9.43;65.78;101782.66;452588;115;923039;-80
2021/10/15 02:29:04;;;;;;;20.99;18.80;;;;;;;9.42;65.80;101775.55;454136;115;922586;-79
2021/10/15 02:30:11;;;;;;;20.25;18.45;;;;;;;9.42;65.80;101778.27;450733;115;923022;-80
2021/10/15 02:31:15;;;;;;;20.69;18.76;;;;;;;9.42;65.82;101781.84;456950;113;922488;-80
2021/10/15 02:32:19;;;;;;;20.02;18.04;;;;;;;9.41;65.75;101788.30;448010;116;923063;-78
2021/10/15 02:33:22;;;;;;;20.94;19.20;;;;;;;9.42;65.74;101784.56;458287;113;930547;-78
2021/10/15 02:34:26;;;;;;;21.56;19.37;;;;;;;9.41;65.77;101782.00;454852;115;922831;-79
2021/10/15 02:35:29;;;;;;;20.88;19.01;;;;;;;9.41;65.81;101790.17;449967;115;930643;-79
2021/10/15 02:36:34;;;;;;;21.74;19.45;;;;;;;9.40;65.83;101785.75;458240;113;922650;-79
2021/10/15 02:37:37;;;;;;;20.62;18.69;;;;;;;9.40;65.83;101791.19;454757;115;930621;-80
2021/10/15 02:38:41;;;;;;;21.66;19.76;;;;;;;9.39;65.83;101787.62;450890;115;922833;-81
2021/10/15 02:39:44;;;;;;;19.96;18.14;;;;;;;9.41;65.88;101788.30;449223;115;930480;-79
2021/10/15 02:40:48;;;;;;;19.72;17.97;;;;;;;9.41;65.91;101785.58;449705;115;930554;-80
2021/10/15 02:41:51;;;;;;;20.51;18.59;;;;;;;9.43;65.87;101788.95;453428;115;922759;-80
2021/10/15 02:42:55;;;;;;;21.28;19.27;;;;;;;9.46;65.84;101787.77;458389;113;922959;-79
2021/10/15 02:43:59;;;;;;;21.55;19.12;;;;;;;9.46;65.79;101782.31;455205;114;922484;-80
2021/10/15 02:45:04;;;;;;;21.86;19.95;;;;;;;9.47;65.79;101782.15;458036;113;923126;-79
2021/10/15 02:46:08;;;;;;;21.11;19.12;;;;;;;9.47;65.76;101779.42;457480;114;930486;-79
2021/10/15 02:47:12;;;;;;;20.79;18.94;;;;;;;9.47;65.69;101776.70;457749;113;923170;-79
2021/10/15 02:48:15;;;;;;;20.05;18.25;;;;;;;9.47;65.60;101784.88;457830;113;930829;-80
2021/10/15 02:49:20;;;;;;;20.79;19.06;;;;;;;9.47;65.60;101784.02;457496;113;922582;-80
2021/10/15 02:50:26;;;;;;;21.04;19.12;;;;;;;9.47;65.62;101784.88;458130;113;923063;-79
2021/10/15 02:51:30;;;;;;;22.51;19.49;;;;;;;9.49;65.55;101787.39;448355;116;922716;-80
2021/10/15 02:52:34;;;;;;;21.25;19.27;;;;;;;9.48;65.54;101783.81;457632;113;922473;-79
2021/10/15 02:53:38;;;;;;;20.47;18.55;;;;;;;9.47;65.56;101784.88;457713;114;923252;-79
2021/10/15 02:54:41;;;;;;;21.80;18.34;;;;;;;9.47;65.48;101782.15;457897;115;930557;-80
2021/10/15 02:55:45;;;;;;;20.51;18.76;;;;;;;9.47;65.47;101779.42;448974;116;922973;-79
2021/10/15 02:56:50;;;;;;;20.86;18.79;;;;;;;9.46;65.52;101775.00;457311;113;930512;-79
2021/10/15 02:57:53;;;;;;;20.79;19.04;;;;;;;9.47;65.50;101782.15;457550;113;923073;-79
2021/10/15 02:58:57;;;;;;;25.46;18.94;;;;;;;9.46;65.54;101780.45;451330;115;923145;-81
2021/10/15 03:00:01;;;;;;;21.91;18.96;;;;;;;9.46;65.56;101775.00;449716;116;922628;-79
2021/10/15 03:01:04;;;;;;;21.40;19.45;;;;;;;9.45;65.60;101781.47;457112;113;922550;-81
2021/10/15 03:02:08;;;;;;;21.18;19.27;;;;;;;9.45;65.59;101777.89;458352;113;928947;-78
2021/10/15 03:03:12;;;;;;;20.56;18.68;;;;;;;9.43;65.58;101779.94;457304;115;930669;-79
2021/10/15 03:04:15;;;;;;;21.94;20.05;;;;;;;9.42;65.58;101790.00;454688;114;923461;-78
2021/10/15 03:05:18;;;;;;;23.76;20.94;;;;;;;9.40;65.56;101794.77;457850;113;922703;-77
2021/10/15 03:06:22;;;;;;;22.36;20.26;;;;;;;9.39;65.57;101789.48;448922;115;922645;-79
2021/10/15 03:07:26;;;;;;;22.30;19.73;;;;;;;9.38;65.61;101785.92;458436;113;931050;-79
2021/10/15 03:08:29;;;;;;;21.88;19.71;;;;;;;9.38;65.68;101787.78;457106;114;922720;-79
2021/10/15 03:09:33;;;;;;;21.89;19.89;;;;;;;9.37;65.84;101784.22;449307;118;922417;-79
2021/10/15 03:10:37;;;;;;;21.41;19.61;;;;;;;9.39;65.84;101784.05;457723;113;930808;-77
2021/10/15 03:11:41;;;;;;;21.27;19.46;;;;;;;9.40;65.86;101785.75;447905;116;923487;-79
2021/10/15 03:12:44;;;;;;;21.37;19.59;;;;;;;9.43;65.77;101786.23;457321;115;922863;-79
2021/10/15 03:13:48;;;;;;;21.13;19.18;;;;;;;9.43;65.77;101786.23;439483;118;930730;-80
2021/10/15 03:14:51;;;;;;;20.50;18.66;;;;;;;9.45;65.91;101789.63;457414;111;922772;-76
2021/10/15 03:15:55;;;;;;;20.98;18.97;;;;;;;9.46;65.83;101788.61;464528;111;922687;-78
2021/10/15 03:16:58;;;;;;;20.69;18.56;;;;;;;9.48;65.80;101796.61;465782;111;922833;-79
2021/10/15 03:18:02;;;;;;;20.49;18.78;;;;;;;9.48;65.88;101794.70;465689;111;922776;-79
2021/10/15 03:19:05;;;;;;;20.77;19.03;;;;;;;9.50;65.83;101799.98;465353;111;930741;-78
2021/10/15 03:20:10;;;;;;;21.93;19.96;;;;;;;9.51;65.72;101794.38;465110;111;922628;-79
2021/10/15 03:21:14;;;;;;;21.11;19.14;;;;;;;9.50;65.64;101795.39;464906;111;930522;-78
2021/10/15 03:22:17;;;;;;;20.46;18.85;;;;;;;9.50;65.63;101789.95;464404;111;923118;-78
2021/10/15 03:23:21;;;;;;;21.79;19.89;;;;;;;9.49;65.64;101793.69;465690;111;922646;-78
2021/10/15 03:24:24;;;;;;;20.23;18.38;;;;;;;9.48;65.66;101796.61;464655;111;930730;-79
2021/10/15 03:25:28;;;;;;;20.09;18.49;;;;;;;9.47;65.66;101790.31;466013;110;930602;-79
2021/10/15 03:26:32;;;;;;;21.38;19.58;;;;;;;9.47;65.68;101793.04;466920;111;930540;-79
2021/10/15 03:27:35;;;;;;;21.70;19.76;;;;;;;9.48;65.77;101799.33;451642;116;922679;-79
2021/10/15 03:28:39;;;;;;;20.73;18.93;;;;;;;9.48;65.68;101799.33;465902;111;930678;-78
2021/10/15 03:29:42;;;;;;;20.94;19.04;;;;;;;9.47;65.75;101790.31;465176;111;930603;-79
2021/10/15 03:30:46;;;;;;;21.52;19.64;;;;;;;9.47;65.84;101786.74;446571;116;922910;-78
2021/10/15 03:31:50;;;;;;;22.75;20.55;;;;;;;9.48;65.78;101791.98;466878;111;926412;-80
2021/10/15 03:32:53;;;;;;;21.16;19.19;;;;;;;9.48;65.77;101786.54;466144;111;922614;-76
2021/10/15 03:33:57;;;;;;;21.06;18.93;;;;;;;9.50;65.79;101789.95;465460;111;923207;-79
2021/10/15 03:35:01;;;;;;;21.56;19.83;;;;;;;9.51;65.77;101790.80;464565;111;922908;-79
2021/10/15 03:36:04;;;;;;;21.04;19.30;;;;;;;9.51;65.73;101788.92;465206;111;922889;-79
2021/10/15 03:37:08;;;;;;;21.38;19.62;;;;;;;9.50;65.70;101789.09;464959;111;922492;-80
2021/10/15 03:38:11;;;;;;;22.42;20.17;;;;;;;9.49;65.73;101790.97;465120;111;923126;-80
2021/10/15 03:39:16;;;;;;;19.64;18.12;;;;;;;9.49;65.74;101796.41;465123;111;923068;-77
2021/10/15 03:40:21;;;;;;;21.88;20.05;;;;;;;9.49;65.69;101795.56;465546;111;923386;-77
2021/10/15 03:41:24;;;;;;;20.23;18.59;;;;;;;9.47;65.67;101793.04;465083;111;923145;-79
2021/10/15 03:42:28;;;;;;;22.32;20.31;;;;;;;9.46;65.66;101796.78;466061;111;922944;-78
2021/10/15 03:43:31;;;;;;;22.34;20.13;;;;;;;9.45;65.66;101795.08;467566;111;923035;-80
2021/10/15 03:44:35;;;;;;;20.97;19.36;;;;;;;9.45;65.65;101786.06;465137;111;930459;-78
2021/10/15 03:45:38;;;;;;;21.16;19.24;;;;;;;9.43;65.72;101791.67;465731;111;922614;-78
2021/10/15 03:46:42;;;;;;;21.50;19.75;;;;;;;9.43;65.72;101796.27;465237;111;923064;-78
2021/10/15 03:47:46;;;;;;;21.57;19.82;;;;;;;9.42;65.71;101795.45;464344;111;923025;-80
2021/10/15 03:48:49;;;;;;;22.09;20.09;;;;;;;9.41;65.67;101799.19;465506;111;922943;-79
2021/10/15 03:49:53;;;;;;;22.68;20.65;;;;;;;9.41;65.66;101809.23;456217;114;930522;-79
2021/10/15 03:50:57;;;;;;;22.92;20.82;;;;;;;9.40;65.69;101807.52;466038;111;923032;-77
2021/10/15 03:52:00;;;;;;;21.69;20.04;;;;;;;9.40;65.72;101807.52;465677;111;922761;-78
2021/10/15 03:53:04;;;;;;;21.44;19.51;;;;;;;9.40;65.72;101807.52;456349;113;923340;-77
2021/10/15 03:54:07;;;;;;;21.20;19.40;;;;;;;9.41;65.77;101810.08;465157;111;923034;-80
2021/10/15 03:55:12;;;;;;;22.23;20.46;;;;;;;9.41;65.78;101815.52;465437;111;923616;-79
2021/10/15 03:56:17;;;;;;;22.08;20.10;;;;;;;9.41;65.82;101814.67;465439;111;930572;-77
2021/10/15 03:57:20;;;;;;;23.04;20.92;;;;;;;9.41;66.01;101810.08;465127;111;922872;-78
2021/10/15 03:58:24;;;;;;;23.54;20.54;;;;;;;9.41;66.01;101810.08;464996;111;930591;-79
2021/10/15 03:59:27;;;;;;;20.82;19.07;;;;;;;9.43;65.86;101813.45;465454;111;922558;-77
2021/10/15 04:00:31;;;;;;;23.22;20.77;;;;;;;9.44;65.86;101806.13;466411;111;923234;-78
2021/10/15 04:01:34;;;;;;;20.79;19.01;;;;;;;9.46;65.90;101813.11;465223;111;930625;-79
2021/10/15 04:02:41;;;;;;;21.93;19.99;;;;;;;9.47;65.90;101812.09;456639;114;930612;-78
2021/10/15 04:03:45;;;;;;;22.74;20.73;;;;;;;9.50;65.77;101808.15;465590;111;930468;-79
2021/10/15 04:04:48;;;;;;;20.97;19.01;;;;;;;9.51;65.74;101807.98;466453;111;922725;-78
2021/10/15 04:05:52;;;;;;;22.14;20.17;;;;;;;9.52;65.80;101809.69;464991;111;923094;-79
2021/10/15 04:06:56;;;;;;;22.14;20.18;;;;;;;9.55;65.71;101805.73;466808;111;922569;-80
2021/10/15 04:07:59;;;;;;;21.89;19.94;;;;;;;9.55;65.69;101812.03;465299;111;922463;-78
2021/10/15 04:09:03;;;;;;;22.56;20.58;;;;;;;9.55;65.64;101811.19;465844;111;923115;-79
2021/10/15 04:10:08;;;;;;;26.16;20.62;;;;;;;9.55;65.63;101811.19;465454;111;922921;-79
2021/10/15 04:11:11;;;;;;;22.15;20.28;;;;;;;9.55;65.63;101814.76;465113;111;930575;-79
2021/10/15 04:12:15;;;;;;;22.16;19.90;;;;;;;9.56;65.61;101807.44;465481;111;930468;-77
2021/10/15 04:13:18;;;;;;;21.37;19.54;;;;;;;9.55;65.58;101805.73;466218;111;922625;-80
2021/10/15 04:14:23;;;;;;;22.23;20.31;;;;;;;9.54;65.58;101802.17;464830;111;930529;-79
2021/10/15 04:15:26;;;;;;;22.06;19.95;;;;;;;9.53;65.54;101803.22;465883;111;922771;-81
2021/10/15 04:16:31;;;;;;;21.97;20.06;;;;;;;9.52;65.57;101809.69;465273;111;923075;-78
2021/10/15 04:17:34;;;;;;;22.43;20.29;;;;;;;9.52;65.57;101806.96;465158;111;930624;-78
2021/10/15 04:18:37;;;;;;;21.99;19.96;;;;;;;9.50;65.57;101809.00;449406;115;922895;-80
2021/10/15 04:19:41;;;;;;;22.07;20.14;;;;;;;9.51;65.51;101804.41;466410;111;930556;-80
2021/10/15 04:20:44;;;;;;;21.77;19.98;;;;;;;9.50;65.52;101817.17;465697;111;923013;-81
2021/10/15 04:21:48;;;;;;;21.74;19.91;;;;;;;9.48;65.54;101816.48;465681;111;930492;-79
2021/10/15 04:22:51;;;;;;;23.82;20.46;;;;;;;9.47;65.54;101814.81;463818;111;923278;-78
2021/10/15 04:23:55;;;;;;;22.68;20.19;;;;;;;9.47;65.57;101817.54;465274;111;930554;-80
2021/10/15 04:24:58;;;;;;;22.97;20.68;;;;;;;9.47;65.62;101816.69;465145;111;922946;-78
2021/10/15 04:26:02;;;;;;;22.73;20.77;;;;;;;9.47;65.69;101811.24;464893;111;923164;-81
2021/10/15 04:27:06;;;;;;;21.88;19.86;;;;;;;9.49;65.71;101823.64;465868;111;930471;-77
2021/10/15 04:28:09;;;;;;;22.07;20.07;;;;;;;9.51;65.69;101813.42;466450;111;923070;-78
2021/10/15 04:29:13;;;;;;;23.51;21.21;;;;;;;9.53;65.62;101814.11;465071;111;923279;-77
2021/10/15 04:30:17;;;;;;;22.15;20.15;;;;;;;9.55;65.57;101812.03;466360;111;922523;-79
2021/10/15 04:31:21;;;;;;;23.21;21.04;;;;;;;9.58;65.48;101821.73;465417;111;922676;-80
2021/10/15 04:32:25;;;;;;;22.21;20.08;;;;;;;9.58;65.48;101817.14;465717;111;930546;-78
2021/10/15 04:33:28;;;;;;;22.19;20.04;;;;;;;9.59;65.41;101824.26;465773;111;931394;-83
2021/10/15 04:34:32;;;;;;;27.03;21.57;;;;;;;9.60;65.32;101820.52;465786;111;922792;-79
2021/10/15 04:35:35;;;;;;;22.60;20.70;;;;;;;9.61;65.32;101826.81;465563;111;930382;-79
2021/10/15 04:36:39;;;;;;;23.42;21.22;;;;;;;9.62;65.30;101823.07;465792;111;930515;-79
2021/10/15 04:37:42;;;;;;;23.67;21.44;;;;;;;9.62;65.30;101823.92;465779;111;922570;-78
2021/10/15 04:38:46;;;;;;;23.87;21.55;;;;;;;9.62;65.25;101818.47;465853;111;922629;-78
2021/10/15 04:39:49;;;;;;;24.02;21.61;;;;;;;9.65;65.31;101821.88;464869;111;922521;-78
2021/10/15 04:40:53;;;;;;;24.41;22.01;;;;;;;9.66;65.23;101829.00;465480;111;922616;-79
2021/10/15 04:41:57;;;;;;;21.74;19.79;;;;;;;9.66;65.18;101827.13;466042;111;923022;-78
2021/10/15 04:43:00;;;;;;;22.62;20.42;;;;;;;9.67;65.14;101825.25;465393;111;922542;-80
2021/10/15 04:44:04;;;;;;;23.02;20.62;;;;;;;9.67;65.11;101830.70;452573;116;930796;-79
2021/10/15 04:45:09;;;;;;;26.28;21.26;;;;;;;9.67;65.08;101823.37;467002;111;922566;-80
2021/10/15 04:46:13;;;;;;;22.12;19.87;;;;;;;9.68;65.00;101822.36;464959;111;923190;-79
2021/10/15 04:47:16;;;;;;;23.52;21.44;;;;;;;9.68;65.00;101822.36;465196;111;922628;-79
2021/10/15 04:48:20;;;;;;;23.02;20.72;;;;;;;9.69;64.95;101817.77;465024;111;922637;-79
2021/10/15 04:49:23;;;;;;;27.44;21.31;;;;;;;9.69;64.95;101824.06;466047;111;922976;-78
2021/10/15 04:50:27;;;;;;;25.38;22.73;;;;;;;9.68;64.96;101824.23;465394;111;930455;-79